LFRZ/SNR METAR and TAF weather

Enter ICAO airport designator
Station Type Date Time Source
LFRZ METAR 2022/11/30 17:30 UTC NOAA

LFRZ 301730Z AUTO 06006KT 9999 FEW010 04/03 Q1022 BECMG BKN011


Station Type Date Time Source
LFRZ Decoded METAR 2022/11/30 17:30 UTC NOAA

St-Nazaire, France (LFRZ) 47-19N 002-10W 4M
Nov 30, 2022 - 12:30 PM EST / 2022.11.30 1730 UTC
Wind: from the ENE (060 degrees) at 7 MPH (6 KT):0
Visibility: greater than 7 mile(s):0
Sky conditions: mostly clear
Temperature: 39 F (4 C)
Dew Point: 37 F (3 C)
Relative Humidity: 93%
Pressure (altimeter): 30.18 in. Hg (1022 hPa)
ob: LFRZ 301730Z AUTO 06006KT 9999 FEW010 04/03 Q1022 BECMG BKN011
cycle: 17

Station Type Date Time Source
LFRZ TAF 2022/11/30 18:42 UTC NOAA

TAF LFRZ 301700Z 3018/0118 05007KT 9999 SCT010
BECMG 3018/3020 BKN010
TEMPO 3020/0109 BKN005
BECMG 0109/0111 SCT010 BKN016
TEMPO 0113/0118 CAVOK

Example: see airport list